Terminal Aerodrome Forecast
Issued by NWS Lake Charles, LA

Home | Current Version | Previous Version | Text Only | Print | Product List | Glossary On
Versions: 1 2 3 4 5 6 7 8 9 10 11 12 13
000
FTUS44 KLCH 211141
TAFLCH
TAF
KLCH 211141Z 2112/2212 09005KT P6SM OVC060
     FM211800 12006KT P6SM VCSH BKN025 OVC060
     FM212000 10007KT P6SM VCSH OVC015
     FM220000 07007KT P6SM VCSH OVC015
     FM220400 04007KT P6SM OVC007
     FM221000 02010KT P6SM OVC015=

USA.gov is the U.S. government's official web portal to all federal, state and local government web resources and services.